»·PEaware :: CSX5188 KJFK-TNCM

CSX5188 :: KJFK-TNCM

FLIGHT INFORMATION

Flight Status: Arrived
Operator: Unknown
More flights by this operator :: More flights under this callsign
Pilot: Drew L. (13237)
Aircraft: BOEING 747-400 (WINGLETS)
(B744)
More flights by this aircraft type
Origin: KJFK Kennedy Intl
United States
Destination: TNCM Princess Juliana Intl
Netherlands Antilles
More flights between these airports :: More routes between these airports
Route: SHIPP JETZZ BLUUU DUMPR ISLES SQUAD DARUX L459 DASER/N0493F340 L459 NUBUS/N0493F350 L459 ODUCA SLUGO ULUBA1
File this flight plan on PilotEdge
Remarks: PBN / A1B1D1O1S2 DOF / 181010 REG / N487SB EET / KZBW0001 KZNY0003 KZWY0029 TJZS0230 OPR / CSX PER / D TALT / KPHL RMK / TCAS SIMBRIEF
Altitude:
(Current/Filed)
35,000ft
Speed:
(Current/Filed)
499kts
Departed: 10-Oct-18 12:21 PM
Arrived: 10-Oct-18 03:31 PM
Distance/Time
Traveled:
1463nm/3:09
Distance/Time
To Go:
Arrived

Flight Plot

Page will automatically refresh every two minutes.

Flight plan parsing failed; only flown route is shown


Map Options




Map Legend


Flown Route
Filed Route
Departure Airport
Arrival Airport
Navaid (VOR, NDB)
Fix

Horizontal Profiles

Position Reports

Time Latitude Longitude Heading Altitude Ground
Speed
10-Oct-18 12:01 40.657865 -73.778652 31 25ft 0kts
10-Oct-18 12:02 40.657865 -73.778652 31 26ft 0kts
10-Oct-18 12:03 40.657865 -73.778652 31 26ft 0kts
10-Oct-18 12:04 40.657865 -73.778652 31 26ft 0kts
10-Oct-18 12:05 40.657865 -73.778652 31 26ft 0kts
10-Oct-18 12:06 40.657865 -73.778652 31 26ft 0kts
10-Oct-18 12:07 40.657865 -73.778652 31 26ft 0kts
10-Oct-18 12:08 40.657865 -73.778652 31 26ft 0kts
10-Oct-18 12:09 40.657865 -73.778652 31 26ft 0kts
10-Oct-18 12:10 40.657865 -73.778652 31 26ft 0kts
10-Oct-18 12:11 40.657865 -73.778652 31 26ft 0kts
10-Oct-18 12:12 40.657865 -73.778652 31 26ft 0kts
10-Oct-18 12:13 40.657866 -73.778652 31 26ft 0kts
10-Oct-18 12:14 40.657864 -73.778653 31 26ft 0kts
10-Oct-18 12:15 40.657375 -73.779041 31 26ft 0kts
10-Oct-18 12:16 40.657376 -73.779041 31 26ft 0kts
10-Oct-18 12:17 40.657346 -73.778740 128 26ft 0kts
10-Oct-18 12:18 40.657346 -73.778739 128 26ft 0kts
10-Oct-18 12:19 40.654870 -73.778371 209 26ft 10kts
10-Oct-18 12:20 40.655436 -73.782321 300 26ft 23kts
10-Oct-18 12:21 40.658326 -73.788818 292 26ft 12kts
10-Oct-18 12:22 40.657492 -73.789635 120 26ft 0kts
10-Oct-18 12:23 40.642865 -73.757400 122 491ft 193kts
10-Oct-18 12:24 40.611882 -73.692865 123 2708ft 232kts
10-Oct-18 12:25 40.570252 -73.617496 134 4404ft 283kts
10-Oct-18 12:26 40.517796 -73.537736 134 7408ft 290kts
10-Oct-18 12:27 40.463506 -73.453748 134 9813ft 310kts
10-Oct-18 12:28 40.391306 -73.342487 133 10582ft 389kts
10-Oct-18 12:29 40.330099 -73.247635 130 12116ft 422kts
10-Oct-18 12:30 40.263821 -73.115624 124 14627ft 444kts
10-Oct-18 12:31 40.195000 -72.977353 125 17209ft 463kts
10-Oct-18 12:32 40.122806 -72.834028 125 19546ft 481kts
10-Oct-18 12:33 40.051170 -72.682063 122 21675ft 499kts
10-Oct-18 12:34 39.979604 -72.523758 121 23660ft 514kts
10-Oct-18 12:35 39.907213 -72.359165 121 25431ft 530kts
10-Oct-18 12:36 39.833195 -72.190157 121 26952ft 543kts
10-Oct-18 12:37 39.757672 -72.020632 120 28911ft 540kts
10-Oct-18 12:38 39.680411 -71.853604 121 30703ft 539kts
10-Oct-18 12:39 39.602773 -71.687999 121 32231ft 538kts
10-Oct-18 12:40 39.525679 -71.522145 121 33595ft 537kts
10-Oct-18 12:41 39.446604 -71.358432 130 34776ft 534kts
10-Oct-18 12:42 39.322993 -71.257100 159 35117ft 528kts
10-Oct-18 12:43 39.186252 -71.188108 161 35115ft 526kts
10-Oct-18 12:44 39.050600 -71.118107 160 35113ft 526kts
10-Oct-18 12:45 38.914523 -71.047803 160 35113ft 526kts
10-Oct-18 12:46 38.778508 -70.977930 160 35117ft 527kts
10-Oct-18 12:47 38.642443 -70.908329 160 35117ft 526kts
10-Oct-18 12:48 38.506472 -70.839058 160 35117ft 526kts
10-Oct-18 12:49 38.370339 -70.769985 160 35116ft 526kts
10-Oct-18 12:50 38.234376 -70.701086 160 35116ft 526kts
10-Oct-18 12:51 38.098424 -70.632769 160 35116ft 526kts
10-Oct-18 12:52 37.963323 -70.562015 156 35115ft 526kts
10-Oct-18 12:53 37.831911 -70.478582 155 35115ft 527kts
10-Oct-18 12:54 37.700661 -70.396464 155 35116ft 527kts
10-Oct-18 12:55 37.569500 -70.314264 155 35117ft 527kts
10-Oct-18 12:56 37.438062 -70.232580 155 35118ft 527kts
10-Oct-18 12:57 37.306225 -70.151030 155 35118ft 527kts
10-Oct-18 12:58 37.174239 -70.069714 155 35114ft 527kts
10-Oct-18 12:59 37.042526 -69.988881 155 35115ft 526kts
10-Oct-18 13:00 36.912026 -69.909103 155 35102ft 521kts
10-Oct-18 13:01 36.781745 -69.829761 155 35104ft 522kts
10-Oct-18 13:02 36.650769 -69.750297 155 35099ft 522kts
10-Oct-18 13:03 36.520415 -69.671509 155 35106ft 522kts
10-Oct-18 13:04 36.389758 -69.592622 155 35107ft 522kts
10-Oct-18 13:05 36.258498 -69.513998 155 35109ft 522kts
10-Oct-18 13:06 36.130859 -69.428696 145 35122ft 523kts
10-Oct-18 13:07 36.015627 -69.318098 142 35122ft 523kts
10-Oct-18 13:08 35.900755 -69.208468 143 35124ft 522kts
10-Oct-18 13:09 35.786326 -69.099202 143 35126ft 520kts
10-Oct-18 13:10 35.671831 -68.990785 143 35125ft 518kts
10-Oct-18 13:11 35.557343 -68.882882 143 35128ft 517kts
10-Oct-18 13:12 35.462334 -68.793649 143 35129ft 516kts
10-Oct-18 13:13 35.328984 -68.668865 143 35127ft 515kts
10-Oct-18 13:14 35.214929 -68.562557 143 35129ft 514kts
10-Oct-18 13:15 35.120175 -68.474531 143 35132ft 515kts
10-Oct-18 13:16 34.986890 -68.351156 143 35135ft 514kts
10-Oct-18 13:17 34.892087 -68.263714 143 35133ft 513kts
10-Oct-18 13:18 34.778040 -68.158865 143 35137ft 513kts
10-Oct-18 13:19 34.664438 -68.054793 143 35140ft 512kts
10-Oct-18 13:20 34.550508 -67.950785 143 35144ft 510kts
10-Oct-18 13:21 34.437004 -67.847527 143 35149ft 509kts
10-Oct-18 13:22 34.323841 -67.744639 143 35151ft 509kts
10-Oct-18 13:23 34.210043 -67.642017 143 35156ft 509kts
10-Oct-18 13:24 34.084918 -67.566801 167 35160ft 508kts
10-Oct-18 13:25 33.945984 -67.536027 171 35162ft 506kts
10-Oct-18 13:26 33.807477 -67.507130 170 35163ft 506kts
10-Oct-18 13:27 33.668377 -67.477574 170 35166ft 506kts
10-Oct-18 13:28 33.529643 -67.448233 170 35168ft 505kts
10-Oct-18 13:29 33.391471 -67.419116 170 35170ft 505kts
10-Oct-18 13:30 33.252747 -67.389979 170 35175ft 505kts
10-Oct-18 13:31 33.114613 -67.361060 170 35172ft 504kts
10-Oct-18 13:32 32.976118 -67.332157 170 35174ft 504kts
10-Oct-18 13:33 32.838115 -67.303449 170 35175ft 504kts
10-Oct-18 13:34 32.677260 -67.270101 170 35176ft 503kts
10-Oct-18 13:35 32.561816 -67.246242 170 35177ft 504kts
10-Oct-18 13:36 32.423809 -67.217803 170 35178ft 504kts
10-Oct-18 13:37 32.285798 -67.189450 170 35179ft 504kts
10-Oct-18 13:38 32.147908 -67.161210 170 35179ft 503kts
10-Oct-18 13:39 32.009653 -67.132982 170 35179ft 503kts
10-Oct-18 13:40 31.871853 -67.104935 169 35179ft 503kts
10-Oct-18 13:41 31.733985 -67.076955 169 35179ft 503kts
10-Oct-18 13:42 31.596377 -67.049113 169 35178ft 503kts
10-Oct-18 13:43 31.458133 -67.021227 169 35178ft 502kts
10-Oct-18 13:44 31.320538 -66.993555 169 35176ft 502kts
10-Oct-18 13:45 31.182679 -66.965912 169 35175ft 501kts
10-Oct-18 13:46 31.045408 -66.938468 169 35174ft 501kts
10-Oct-18 13:47 30.907785 -66.911034 169 35173ft 501kts
10-Oct-18 13:48 30.770114 -66.883670 169 35171ft 502kts
10-Oct-18 13:49 30.632656 -66.856428 169 35170ft 501kts
10-Oct-18 13:50 30.494848 -66.829195 169 35167ft 501kts
10-Oct-18 13:51 30.357291 -66.802090 169 35165ft 501kts
10-Oct-18 13:52 30.220206 -66.775154 169 35163ft 501kts
10-Oct-18 13:53 30.082488 -66.748172 169 35160ft 501kts
10-Oct-18 13:54 29.945197 -66.721349 169 35158ft 500kts
10-Oct-18 13:55 29.808021 -66.694621 169 35155ft 500kts
10-Oct-18 13:56 29.670444 -66.667891 169 35152ft 500kts
10-Oct-18 13:57 29.533379 -66.641334 169 35150ft 500kts
10-Oct-18 13:58 29.396234 -66.614835 169 35147ft 500kts
10-Oct-18 13:59 29.258661 -66.588326 169 35143ft 500kts
10-Oct-18 14:00 29.121804 -66.562026 169 35139ft 500kts
10-Oct-18 14:01 28.984253 -66.535664 169 35136ft 500kts
10-Oct-18 14:02 28.847200 -66.509469 169 35133ft 500kts
10-Oct-18 14:03 28.709907 -66.483297 169 35130ft 499kts
10-Oct-18 14:04 28.572977 -66.457263 169 35126ft 499kts
10-Oct-18 14:05 28.436251 -66.431338 169 35122ft 498kts
10-Oct-18 14:06 28.299005 -66.405383 169 35119ft 498kts
10-Oct-18 14:07 28.162398 -66.379616 169 35115ft 498kts
10-Oct-18 14:08 28.025415 -66.353843 169 35111ft 498kts
10-Oct-18 14:09 27.888938 -66.328232 169 35107ft 498kts
10-Oct-18 14:10 27.751970 -66.302595 169 35103ft 498kts
10-Oct-18 14:11 27.615381 -66.277094 169 35099ft 497kts
10-Oct-18 14:12 27.456095 -66.247437 169 35095ft 498kts
10-Oct-18 14:13 27.342028 -66.226252 169 35091ft 497kts
10-Oct-18 14:14 27.205780 -66.201005 169 35087ft 497kts
10-Oct-18 14:15 27.068860 -66.175698 169 35084ft 497kts
10-Oct-18 14:16 26.932459 -66.150549 169 35067ft 497kts
10-Oct-18 14:17 26.795927 -66.125435 169 35060ft 496kts
10-Oct-18 14:18 26.659607 -66.100423 169 35056ft 496kts
10-Oct-18 14:19 26.523547 -66.075519 169 35048ft 496kts
10-Oct-18 14:20 26.387238 -66.050630 168 35045ft 495kts
10-Oct-18 14:21 26.251535 -66.025908 168 35041ft 495kts
10-Oct-18 14:22 26.115431 -66.001174 168 35040ft 495kts
10-Oct-18 14:23 25.957039 -65.972462 169 35052ft 495kts
10-Oct-18 14:24 25.843448 -65.951920 169 35049ft 495kts
10-Oct-18 14:25 25.707706 -65.927424 169 35045ft 494kts
10-Oct-18 14:26 25.571709 -65.902938 169 35042ft 494kts
10-Oct-18 14:27 25.436010 -65.878562 169 35041ft 494kts
10-Oct-18 14:28 25.300545 -65.854284 169 35037ft 494kts
10-Oct-18 14:29 25.164553 -65.829967 169 35034ft 493kts
10-Oct-18 14:30 25.029344 -65.805844 169 35031ft 493kts
10-Oct-18 14:31 24.893611 -65.781681 169 35028ft 493kts
10-Oct-18 14:32 24.757951 -65.757585 169 35026ft 493kts
10-Oct-18 14:33 24.622587 -65.733596 169 35023ft 493kts
10-Oct-18 14:34 24.487206 -65.709654 169 35020ft 493kts
10-Oct-18 14:35 24.351806 -65.685762 169 35018ft 493kts
10-Oct-18 14:36 24.216181 -65.661882 169 35015ft 493kts
10-Oct-18 14:37 24.080647 -65.638068 169 35013ft 493kts
10-Oct-18 14:38 23.944916 -65.614269 169 35011ft 493kts
10-Oct-18 14:39 23.809422 -65.590553 169 35009ft 494kts
10-Oct-18 14:40 23.673666 -65.566835 169 35006ft 494kts
10-Oct-18 14:41 23.537836 -65.543191 170 35004ft 494kts
10-Oct-18 14:42 23.403754 -65.509640 163 35002ft 495kts
10-Oct-18 14:43 23.270406 -65.470493 164 35001ft 495kts
10-Oct-18 14:44 23.137309 -65.432052 164 34999ft 496kts
10-Oct-18 14:45 23.003454 -65.393477 165 34997ft 498kts
10-Oct-18 14:46 22.869395 -65.354995 165 34996ft 499kts
10-Oct-18 14:47 22.712639 -65.310110 165 34994ft 500kts
10-Oct-18 14:48 22.600056 -65.277939 165 34992ft 501kts
10-Oct-18 14:49 22.465485 -65.239557 165 34991ft 502kts
10-Oct-18 14:50 22.330212 -65.201052 166 34981ft 502kts
10-Oct-18 14:51 22.195030 -65.162650 166 34980ft 502kts
10-Oct-18 14:52 22.059711 -65.124285 166 34979ft 502kts
10-Oct-18 14:53 21.924173 -65.085927 166 34978ft 506kts
10-Oct-18 14:54 21.787961 -65.047467 166 34972ft 506kts
10-Oct-18 14:55 21.651804 -65.009092 166 34971ft 506kts
10-Oct-18 14:56 21.515230 -64.970674 166 34967ft 506kts
10-Oct-18 14:57 21.379118 -64.932407 166 34965ft 506kts
10-Oct-18 14:58 21.242630 -64.894181 166 34965ft 507kts
10-Oct-18 14:59 21.106414 -64.854501 162 34965ft 508kts
10-Oct-18 15:00 20.975561 -64.796807 158 34964ft 510kts
10-Oct-18 15:01 20.844338 -64.738130 158 34964ft 511kts
10-Oct-18 15:02 20.712772 -64.679638 158 34963ft 512kts
10-Oct-18 15:03 20.580653 -64.621120 159 34958ft 514kts
10-Oct-18 15:04 20.448385 -64.562691 159 34958ft 515kts
10-Oct-18 15:05 20.315991 -64.504321 159 34964ft 516kts
10-Oct-18 15:06 20.182775 -64.445699 159 34966ft 518kts
10-Oct-18 15:07 20.049259 -64.387054 159 34966ft 518kts
10-Oct-18 15:08 19.915821 -64.328551 159 34966ft 520kts
10-Oct-18 15:09 19.785849 -64.271670 159 34967ft 520kts
10-Oct-18 15:10 19.651818 -64.213118 159 34821ft 517kts
10-Oct-18 15:11 19.521178 -64.156154 159 32662ft 499kts
10-Oct-18 15:12 19.394647 -64.101069 159 30539ft 482kts
10-Oct-18 15:13 19.272986 -64.048198 158 28541ft 463kts
10-Oct-18 15:14 19.155930 -63.997403 158 26572ft 446kts
10-Oct-18 15:15 19.043333 -63.948616 157 24648ft 430kts
10-Oct-18 15:16 18.934490 -63.901523 157 22700ft 415kts
10-Oct-18 15:17 18.829361 -63.856101 157 20746ft 403kts
10-Oct-18 15:18 18.726994 -63.811930 157 18846ft 390kts
10-Oct-18 15:19 18.628170 -63.769273 157 16969ft 379kts
10-Oct-18 15:20 18.531672 -63.727764 157 15131ft 368kts
10-Oct-18 15:21 18.453416 -63.694144 157 13620ft 360kts
10-Oct-18 15:22 18.355017 -63.634397 136 11565ft 346kts
10-Oct-18 15:23 18.300935 -63.579517 134 11286ft 300kts
10-Oct-18 15:24 18.243194 -63.521657 134 10123ft 281kts
10-Oct-18 15:25 18.186992 -63.465691 134 8707ft 274kts
10-Oct-18 15:26 18.123383 -63.402738 134 7126ft 264kts
10-Oct-18 15:27 18.080658 -63.360506 133 6602ft 234kts
10-Oct-18 15:28 18.037550 -63.317927 133 5800ft 201kts
10-Oct-18 15:29 18.017146 -63.270729 87 4106ft 169kts
10-Oct-18 15:30 18.024024 -63.223714 79 2054ft 163kts
10-Oct-18 15:31 18.030914 -63.177800 78 899ft 153kts
10-Oct-18 15:32 18.037240 -63.133458 80 450ft 151kts
10-Oct-18 15:33 18.042025 -63.100326 101 13ft 31kts
10-Oct-18 15:34 18.041798 -63.102609 262 13ft 39kts
10-Oct-18 15:35 18.040685 -63.111475 303 13ft 8kts
10-Oct-18 15:36 18.042135 -63.112007 352 13ft 0kts

Navigation Log

Ident Type
Flight plan parsing failed, navigation log unavailable